sensor_id;sensor_type;location;lat;lon;timestamp;P1;durP1;ratioP1;P2;durP2;ratioP2
74108;SDS011;62466;47.566;7.786;2023-05-07T00:02:15;3.88;;;2.75;;
74108;SDS011;62466;47.566;7.786;2023-05-07T00:04:41;3.20;;;2.80;;
74108;SDS011;62466;47.566;7.786;2023-05-07T00:07:09;5.60;;;3.03;;
74108;SDS011;62466;47.566;7.786;2023-05-07T00:09:35;4.70;;;3.10;;
74108;SDS011;62466;47.566;7.786;2023-05-07T00:12:01;4.47;;;2.63;;
74108;SDS011;62466;47.566;7.786;2023-05-07T00:14:28;3.13;;;2.83;;
74108;SDS011;62466;47.566;7.786;2023-05-07T00:16:55;3.92;;;2.70;;
74108;SDS011;62466;47.566;7.786;2023-05-07T00:19:20;3.08;;;2.78;;
74108;SDS011;62466;47.566;7.786;2023-05-07T00:21:47;3.42;;;2.65;;
74108;SDS011;62466;47.566;7.786;2023-05-07T00:24:12;6.38;;;2.60;;
74108;SDS011;62466;47.566;7.786;2023-05-07T00:26:42;2.97;;;2.50;;
74108;SDS011;62466;47.566;7.786;2023-05-07T00:29:08;2.75;;;2.55;;
74108;SDS011;62466;47.566;7.786;2023-05-07T00:31:34;5.30;;;2.88;;
74108;SDS011;62466;47.566;7.786;2023-05-07T00:34:00;4.03;;;2.65;;
74108;SDS011;62466;47.566;7.786;2023-05-07T00:36:26;2.80;;;2.47;;
74108;SDS011;62466;47.566;7.786;2023-05-07T00:38:53;3.15;;;2.58;;
74108;SDS011;62466;47.566;7.786;2023-05-07T00:41:20;3.00;;;2.70;;
74108;SDS011;62466;47.566;7.786;2023-05-07T00:43:46;3.58;;;2.45;;
74108;SDS011;62466;47.566;7.786;2023-05-07T00:46:13;2.88;;;2.67;;
74108;SDS011;62466;47.566;7.786;2023-05-07T00:48:41;4.57;;;3.22;;
74108;SDS011;62466;47.566;7.786;2023-05-07T00:51:07;3.47;;;2.88;;
74108;SDS011;62466;47.566;7.786;2023-05-07T00:53:33;3.78;;;2.75;;
74108;SDS011;62466;47.566;7.786;2023-05-07T00:56:00;4.32;;;3.95;;
74108;SDS011;62466;47.566;7.786;2023-05-07T00:58:27;4.60;;;3.45;;
74108;SDS011;62466;47.566;7.786;2023-05-07T01:00:55;4.85;;;3.10;;
74108;SDS011;62466;47.566;7.786;2023-05-07T01:03:23;3.22;;;2.83;;
74108;SDS011;62466;47.566;7.786;2023-05-07T01:05:49;5.97;;;3.35;;
74108;SDS011;62466;47.566;7.786;2023-05-07T01:08:19;2.90;;;2.70;;
74108;SDS011;62466;47.566;7.786;2023-05-07T01:10:46;3.22;;;2.90;;
74108;SDS011;62466;47.566;7.786;2023-05-07T01:13:13;2.90;;;2.70;;
74108;SDS011;62466;47.566;7.786;2023-05-07T01:15:40;3.67;;;3.10;;
74108;SDS011;62466;47.566;7.786;2023-05-07T01:18:06;3.65;;;2.90;;
74108;SDS011;62466;47.566;7.786;2023-05-07T01:20:34;3.35;;;2.90;;
74108;SDS011;62466;47.566;7.786;2023-05-07T01:23:01;3.33;;;3.03;;
74108;SDS011;62466;47.566;7.786;2023-05-07T01:25:28;3.78;;;3.03;;
74108;SDS011;62466;47.566;7.786;2023-05-07T01:27:57;3.30;;;2.80;;
74108;SDS011;62466;47.566;7.786;2023-05-07T01:30:28;4.10;;;2.80;;
74108;SDS011;62466;47.566;7.786;2023-05-07T01:32:57;3.13;;;2.65;;
74108;SDS011;62466;47.566;7.786;2023-05-07T01:37:55;3.25;;;2.70;;
74108;SDS011;62466;47.566;7.786;2023-05-07T01:40:21;3.78;;;3.15;;
74108;SDS011;62466;47.566;7.786;2023-05-07T01:42:48;3.33;;;2.40;;
74108;SDS011;62466;47.566;7.786;2023-05-07T01:45:14;3.83;;;2.60;;
74108;SDS011;62466;47.566;7.786;2023-05-07T01:47:40;3.65;;;2.50;;
74108;SDS011;62466;47.566;7.786;2023-05-07T01:50:08;2.75;;;2.55;;
74108;SDS011;62466;47.566;7.786;2023-05-07T01:52:38;3.33;;;2.50;;
74108;SDS011;62466;47.566;7.786;2023-05-07T01:55:08;2.63;;;2.38;;
74108;SDS011;62466;47.566;7.786;2023-05-07T01:57:38;4.45;;;2.60;;
74108;SDS011;62466;47.566;7.786;2023-05-07T02:00:04;2.95;;;2.63;;
74108;SDS011;62466;47.566;7.786;2023-05-07T02:02:41;2.80;;;2.50;;
74108;SDS011;62466;47.566;7.786;2023-05-07T02:05:15;3.78;;;2.65;;
74108;SDS011;62466;47.566;7.786;2023-05-07T02:07:43;7.78;;;3.50;;
74108;SDS011;62466;47.566;7.786;2023-05-07T02:10:10;3.78;;;3.30;;
74108;SDS011;62466;47.566;7.786;2023-05-07T02:12:37;3.70;;;3.33;;
74108;SDS011;62466;47.566;7.786;2023-05-07T02:15:04;4.32;;;3.35;;
74108;SDS011;62466;47.566;7.786;2023-05-07T02:17:33;5.35;;;3.50;;
74108;SDS011;62466;47.566;7.786;2023-05-07T02:20:03;5.18;;;3.13;;
74108;SDS011;62466;47.566;7.786;2023-05-07T02:22:29;3.67;;;3.13;;
74108;SDS011;62466;47.566;7.786;2023-05-07T02:24:55;3.58;;;2.67;;
74108;SDS011;62466;47.566;7.786;2023-05-07T02:27:21;2.78;;;2.47;;
74108;SDS011;62466;47.566;7.786;2023-05-07T02:29:47;4.07;;;2.70;;
74108;SDS011;62466;47.566;7.786;2023-05-07T02:32:13;3.45;;;2.58;;
74108;SDS011;62466;47.566;7.786;2023-05-07T02:34:39;2.65;;;2.45;;
74108;SDS011;62466;47.566;7.786;2023-05-07T02:37:05;3.22;;;2.63;;
74108;SDS011;62466;47.566;7.786;2023-05-07T02:39:30;2.70;;;2.50;;
74108;SDS011;62466;47.566;7.786;2023-05-07T02:41:56;2.88;;;2.63;;
74108;SDS011;62466;47.566;7.786;2023-05-07T02:44:22;3.05;;;2.50;;
74108;SDS011;62466;47.566;7.786;2023-05-07T02:46:50;3.53;;;2.95;;
74108;SDS011;62466;47.566;7.786;2023-05-07T02:49:16;3.35;;;2.72;;
74108;SDS011;62466;47.566;7.786;2023-05-07T02:51:42;3.28;;;2.60;;
74108;SDS011;62466;47.566;7.786;2023-05-07T02:54:14;4.30;;;2.90;;
74108;SDS011;62466;47.566;7.786;2023-05-07T02:56:40;8.68;;;3.38;;
74108;SDS011;62466;47.566;7.786;2023-05-07T02:59:06;3.00;;;2.70;;
74108;SDS011;62466;47.566;7.786;2023-05-07T03:01:36;5.13;;;2.80;;
74108;SDS011;62466;47.566;7.786;2023-05-07T03:04:05;3.15;;;2.85;;
74108;SDS011;62466;47.566;7.786;2023-05-07T03:06:34;3.92;;;2.25;;
74108;SDS011;62466;47.566;7.786;2023-05-07T03:09:01;6.45;;;3.08;;
74108;SDS011;62466;47.566;7.786;2023-05-07T03:11:29;5.03;;;2.67;;
74108;SDS011;62466;47.566;7.786;2023-05-07T03:13:55;3.53;;;2.90;;
74108;SDS011;62466;47.566;7.786;2023-05-07T03:16:21;3.90;;;2.58;;
74108;SDS011;62466;47.566;7.786;2023-05-07T03:18:47;3.05;;;2.80;;
74108;SDS011;62466;47.566;7.786;2023-05-07T03:21:15;4.28;;;2.80;;
74108;SDS011;62466;47.566;7.786;2023-05-07T03:23:41;4.63;;;2.97;;
74108;SDS011;62466;47.566;7.786;2023-05-07T03:26:07;4.05;;;3.00;;
74108;SDS011;62466;47.566;7.786;2023-05-07T03:28:36;4.75;;;3.03;;
74108;SDS011;62466;47.566;7.786;2023-05-07T03:31:05;4.43;;;2.95;;
74108;SDS011;62466;47.566;7.786;2023-05-07T03:33:35;3.08;;;2.83;;
74108;SDS011;62466;47.566;7.786;2023-05-07T03:36:18;2.60;;;2.40;;
74108;SDS011;62466;47.566;7.786;2023-05-07T03:38:47;4.35;;;2.85;;
74108;SDS011;62466;47.566;7.786;2023-05-07T03:41:17;3.28;;;2.80;;
74108;SDS011;62466;47.566;7.786;2023-05-07T03:43:44;3.15;;;2.67;;
74108;SDS011;62466;47.566;7.786;2023-05-07T03:46:11;3.63;;;2.67;;
74108;SDS011;62466;47.566;7.786;2023-05-07T03:48:38;4.78;;;3.28;;
74108;SDS011;62466;47.566;7.786;2023-05-07T03:51:06;5.75;;;2.95;;
74108;SDS011;62466;47.566;7.786;2023-05-07T03:53:33;4.05;;;3.40;;
74108;SDS011;62466;47.566;7.786;2023-05-07T03:56:00;3.83;;;3.45;;
74108;SDS011;62466;47.566;7.786;2023-05-07T03:58:30;3.92;;;3.50;;
74108;SDS011;62466;47.566;7.786;2023-05-07T04:01:00;3.55;;;3.25;;
74108;SDS011;62466;47.566;7.786;2023-05-07T04:03:27;5.05;;;4.07;;
74108;SDS011;62466;47.566;7.786;2023-05-07T04:05:57;7.30;;;4.95;;
74108;SDS011;62466;47.566;7.786;2023-05-07T04:08:22;5.95;;;4.60;;
74108;SDS011;62466;47.566;7.786;2023-05-07T04:10:55;5.78;;;4.47;;
74108;SDS011;62466;47.566;7.786;2023-05-07T04:13:22;6.18;;;4.00;;
74108;SDS011;62466;47.566;7.786;2023-05-07T04:15:50;7.13;;;4.43;;
74108;SDS011;62466;47.566;7.786;2023-05-07T04:18:18;5.00;;;4.22;;
74108;SDS011;62466;47.566;7.786;2023-05-07T04:20:45;6.35;;;4.30;;
74108;SDS011;62466;47.566;7.786;2023-05-07T04:23:13;6.10;;;4.38;;
74108;SDS011;62466;47.566;7.786;2023-05-07T04:25:40;6.70;;;4.38;;
74108;SDS011;62466;47.566;7.786;2023-05-07T04:28:17;4.85;;;4.20;;
74108;SDS011;62466;47.566;7.786;2023-05-07T04:30:44;4.93;;;4.45;;
74108;SDS011;62466;47.566;7.786;2023-05-07T04:33:11;6.93;;;4.40;;
74108;SDS011;62466;47.566;7.786;2023-05-07T04:35:39;4.85;;;3.85;;
74108;SDS011;62466;47.566;7.786;2023-05-07T04:38:05;3.97;;;3.55;;
74108;SDS011;62466;47.566;7.786;2023-05-07T04:40:31;5.13;;;4.22;;
74108;SDS011;62466;47.566;7.786;2023-05-07T04:42:59;4.40;;;4.00;;
74108;SDS011;62466;47.566;7.786;2023-05-07T04:45:29;3.67;;;3.38;;
74108;SDS011;62466;47.566;7.786;2023-05-07T04:47:55;5.15;;;3.35;;
74108;SDS011;62466;47.566;7.786;2023-05-07T04:50:21;3.97;;;3.63;;
74108;SDS011;62466;47.566;7.786;2023-05-07T04:52:51;5.13;;;3.30;;
74108;SDS011;62466;47.566;7.786;2023-05-07T04:55:17;4.13;;;3.72;;
74108;SDS011;62466;47.566;7.786;2023-05-07T04:57:45;4.25;;;3.85;;
74108;SDS011;62466;47.566;7.786;2023-05-07T05:00:14;4.13;;;3.72;;
74108;SDS011;62466;47.566;7.786;2023-05-07T05:02:42;4.70;;;3.30;;
74108;SDS011;62466;47.566;7.786;2023-05-07T05:05:09;3.85;;;3.45;;
74108;SDS011;62466;47.566;7.786;2023-05-07T05:07:36;3.95;;;3.58;;
74108;SDS011;62466;47.566;7.786;2023-05-07T05:10:02;3.70;;;3.30;;
74108;SDS011;62466;47.566;7.786;2023-05-07T05:12:30;5.47;;;4.25;;
74108;SDS011;62466;47.566;7.786;2023-05-07T05:14:57;4.63;;;3.60;;
74108;SDS011;62466;47.566;7.786;2023-05-07T05:17:23;5.22;;;4.72;;
74108;SDS011;62466;47.566;7.786;2023-05-07T05:19:49;3.90;;;3.50;;
74108;SDS011;62466;47.566;7.786;2023-05-07T05:22:16;4.35;;;3.95;;
74108;SDS011;62466;47.566;7.786;2023-05-07T05:24:42;4.55;;;4.07;;
74108;SDS011;62466;47.566;7.786;2023-05-07T05:27:08;6.43;;;4.03;;
74108;SDS011;62466;47.566;7.786;2023-05-07T05:29:34;4.20;;;3.72;;
74108;SDS011;62466;47.566;7.786;2023-05-07T05:32:00;5.43;;;4.03;;
74108;SDS011;62466;47.566;7.786;2023-05-07T05:34:28;5.10;;;3.97;;
74108;SDS011;62466;47.566;7.786;2023-05-07T05:36:54;7.15;;;4.40;;
74108;SDS011;62466;47.566;7.786;2023-05-07T05:39:20;4.38;;;3.65;;
74108;SDS011;62466;47.566;7.786;2023-05-07T05:41:48;4.32;;;3.92;;
74108;SDS011;62466;47.566;7.786;2023-05-07T05:44:14;4.05;;;3.70;;
74108;SDS011;62466;47.566;7.786;2023-05-07T05:46:41;4.63;;;4.22;;
74108;SDS011;62466;47.566;7.786;2023-05-07T05:49:07;9.38;;;4.72;;
74108;SDS011;62466;47.566;7.786;2023-05-07T05:51:34;5.72;;;4.32;;
74108;SDS011;62466;47.566;7.786;2023-05-07T05:54:00;4.93;;;4.20;;
74108;SDS011;62466;47.566;7.786;2023-05-07T05:56:25;6.47;;;5.40;;
74108;SDS011;62466;47.566;7.786;2023-05-07T05:58:52;8.05;;;5.35;;
74108;SDS011;62466;47.566;7.786;2023-05-07T06:01:20;8.20;;;5.72;;
74108;SDS011;62466;47.566;7.786;2023-05-07T06:03:47;5.22;;;4.18;;
74108;SDS011;62466;47.566;7.786;2023-05-07T06:06:17;4.20;;;3.63;;
74108;SDS011;62466;47.566;7.786;2023-05-07T06:08:43;3.67;;;3.15;;
74108;SDS011;62466;47.566;7.786;2023-05-07T06:11:12;4.32;;;3.22;;
74108;SDS011;62466;47.566;7.786;2023-05-07T06:13:40;10.52;;;5.47;;
74108;SDS011;62466;47.566;7.786;2023-05-07T06:16:06;8.80;;;6.20;;
74108;SDS011;62466;47.566;7.786;2023-05-07T06:18:41;9.18;;;5.82;;
74108;SDS011;62466;47.566;7.786;2023-05-07T06:21:15;6.03;;;5.28;;
74108;SDS011;62466;47.566;7.786;2023-05-07T06:23:43;6.97;;;4.30;;
74108;SDS011;62466;47.566;7.786;2023-05-07T06:26:10;4.88;;;4.32;;
74108;SDS011;62466;47.566;7.786;2023-05-07T06:28:40;4.30;;;3.78;;
74108;SDS011;62466;47.566;7.786;2023-05-07T06:31:16;4.47;;;3.40;;
74108;SDS011;62466;47.566;7.786;2023-05-07T06:33:52;5.00;;;4.20;;
74108;SDS011;62466;47.566;7.786;2023-05-07T06:36:23;4.13;;;3.20;;
74108;SDS011;62466;47.566;7.786;2023-05-07T06:38:48;5.88;;;4.05;;
74108;SDS011;62466;47.566;7.786;2023-05-07T06:41:14;5.18;;;3.03;;
74108;SDS011;62466;47.566;7.786;2023-05-07T06:43:43;3.70;;;3.20;;
74108;SDS011;62466;47.566;7.786;2023-05-07T06:46:31;3.28;;;2.85;;
74108;SDS011;62466;47.566;7.786;2023-05-07T06:48:57;3.38;;;2.83;;
74108;SDS011;62466;47.566;7.786;2023-05-07T06:51:24;5.03;;;3.25;;
74108;SDS011;62466;47.566;7.786;2023-05-07T06:53:50;5.63;;;3.08;;
74108;SDS011;62466;47.566;7.786;2023-05-07T06:56:16;4.43;;;3.38;;
74108;SDS011;62466;47.566;7.786;2023-05-07T06:58:42;4.32;;;3.40;;
74108;SDS011;62466;47.566;7.786;2023-05-07T07:01:09;5.38;;;3.58;;
74108;SDS011;62466;47.566;7.786;2023-05-07T07:03:36;3.47;;;3.10;;
74108;SDS011;62466;47.566;7.786;2023-05-07T07:06:02;3.28;;;2.75;;
74108;SDS011;62466;47.566;7.786;2023-05-07T07:08:28;3.10;;;2.80;;
74108;SDS011;62466;47.566;7.786;2023-05-07T07:10:54;3.45;;;2.70;;
74108;SDS011;62466;47.566;7.786;2023-05-07T07:13:21;4.28;;;2.85;;
74108;SDS011;62466;47.566;7.786;2023-05-07T07:15:46;3.08;;;2.78;;
74108;SDS011;62466;47.566;7.786;2023-05-07T07:18:12;5.40;;;3.10;;
74108;SDS011;62466;47.566;7.786;2023-05-07T07:20:38;3.78;;;2.40;;
74108;SDS011;62466;47.566;7.786;2023-05-07T07:23:06;4.18;;;2.63;;
74108;SDS011;62466;47.566;7.786;2023-05-07T07:25:34;4.50;;;2.35;;
74108;SDS011;62466;47.566;7.786;2023-05-07T07:28:01;6.15;;;2.63;;
74108;SDS011;62466;47.566;7.786;2023-05-07T07:30:34;2.72;;;2.53;;
74108;SDS011;62466;47.566;7.786;2023-05-07T07:33:13;3.72;;;2.42;;
74108;SDS011;62466;47.566;7.786;2023-05-07T07:35:45;3.95;;;2.50;;
74108;SDS011;62466;47.566;7.786;2023-05-07T07:38:11;3.72;;;2.40;;
74108;SDS011;62466;47.566;7.786;2023-05-07T07:40:38;2.65;;;2.45;;
74108;SDS011;62466;47.566;7.786;2023-05-07T07:43:06;3.30;;;2.33;;
74108;SDS011;62466;47.566;7.786;2023-05-07T07:45:32;4.25;;;2.40;;
74108;SDS011;62466;47.566;7.786;2023-05-07T07:47:59;6.30;;;2.92;;
74108;SDS011;62466;47.566;7.786;2023-05-07T07:50:26;3.10;;;2.50;;
74108;SDS011;62466;47.566;7.786;2023-05-07T07:52:51;3.30;;;3.00;;
74108;SDS011;62466;47.566;7.786;2023-05-07T07:55:19;2.65;;;2.45;;
74108;SDS011;62466;47.566;7.786;2023-05-07T07:57:49;3.40;;;2.28;;
74108;SDS011;62466;47.566;7.786;2023-05-07T08:00:15;2.75;;;2.55;;
74108;SDS011;62466;47.566;7.786;2023-05-07T08:02:47;6.15;;;3.63;;
74108;SDS011;62466;47.566;7.786;2023-05-07T08:05:20;4.63;;;2.63;;
74108;SDS011;62466;47.566;7.786;2023-05-07T08:07:47;2.50;;;2.22;;
74108;SDS011;62466;47.566;7.786;2023-05-07T08:10:18;3.13;;;2.60;;
74108;SDS011;62466;47.566;7.786;2023-05-07T08:12:49;2.20;;;2.00;;
74108;SDS011;62466;47.566;7.786;2023-05-07T08:15:14;3.25;;;2.15;;
74108;SDS011;62466;47.566;7.786;2023-05-07T08:17:41;2.83;;;2.50;;
74108;SDS011;62466;47.566;7.786;2023-05-07T08:20:07;4.40;;;2.35;;
74108;SDS011;62466;47.566;7.786;2023-05-07T08:22:35;2.22;;;1.90;;
74108;SDS011;62466;47.566;7.786;2023-05-07T08:25:04;2.45;;;2.05;;
74108;SDS011;62466;47.566;7.786;2023-05-07T08:27:30;4.35;;;2.35;;
74108;SDS011;62466;47.566;7.786;2023-05-07T08:29:57;4.72;;;2.05;;
74108;SDS011;62466;47.566;7.786;2023-05-07T08:32:25;2.30;;;1.95;;
74108;SDS011;62466;47.566;7.786;2023-05-07T08:34:53;5.40;;;2.30;;
74108;SDS011;62466;47.566;7.786;2023-05-07T08:37:18;3.28;;;2.35;;
74108;SDS011;62466;47.566;7.786;2023-05-07T08:39:46;3.40;;;2.50;;
74108;SDS011;62466;47.566;7.786;2023-05-07T08:42:17;4.70;;;2.33;;
74108;SDS011;62466;47.566;7.786;2023-05-07T08:44:54;2.47;;;2.28;;
74108;SDS011;62466;47.566;7.786;2023-05-07T08:47:24;3.53;;;2.28;;
74108;SDS011;62466;47.566;7.786;2023-05-07T08:49:57;2.50;;;2.22;;
74108;SDS011;62466;47.566;7.786;2023-05-07T08:52:23;4.88;;;2.17;;
74108;SDS011;62466;47.566;7.786;2023-05-07T08:54:49;2.90;;;2.03;;
74108;SDS011;62466;47.566;7.786;2023-05-07T08:57:21;2.33;;;1.73;;
74108;SDS011;62466;47.566;7.786;2023-05-07T08:59:51;4.15;;;1.83;;
74108;SDS011;62466;47.566;7.786;2023-05-07T09:02:17;3.85;;;2.35;;
74108;SDS011;62466;47.566;7.786;2023-05-07T09:04:43;2.97;;;1.95;;
74108;SDS011;62466;47.566;7.786;2023-05-07T09:07:09;2.35;;;1.85;;
74108;SDS011;62466;47.566;7.786;2023-05-07T09:09:40;3.15;;;2.00;;
74108;SDS011;62466;47.566;7.786;2023-05-07T09:12:06;2.42;;;2.00;;
74108;SDS011;62466;47.566;7.786;2023-05-07T09:14:35;1.92;;;1.83;;
74108;SDS011;62466;47.566;7.786;2023-05-07T09:17:02;2.63;;;2.05;;
74108;SDS011;62466;47.566;7.786;2023-05-07T09:19:28;3.47;;;1.85;;
74108;SDS011;62466;47.566;7.786;2023-05-07T09:22:00;1.90;;;1.80;;
74108;SDS011;62466;47.566;7.786;2023-05-07T09:24:31;12.38;;;1.92;;
74108;SDS011;62466;47.566;7.786;2023-05-07T09:27:04;2.28;;;1.80;;
74108;SDS011;62466;47.566;7.786;2023-05-07T09:29:30;3.47;;;2.05;;
74108;SDS011;62466;47.566;7.786;2023-05-07T09:32:07;2.28;;;1.88;;
74108;SDS011;62466;47.566;7.786;2023-05-07T09:34:34;3.15;;;1.95;;
74108;SDS011;62466;47.566;7.786;2023-05-07T09:37:06;5.13;;;1.70;;
74108;SDS011;62466;47.566;7.786;2023-05-07T09:39:42;2.63;;;2.42;;
74108;SDS011;62466;47.566;7.786;2023-05-07T09:42:10;3.78;;;2.20;;
74108;SDS011;62466;47.566;7.786;2023-05-07T09:44:37;2.25;;;1.73;;
74108;SDS011;62466;47.566;7.786;2023-05-07T09:47:06;2.00;;;1.70;;
74108;SDS011;62466;47.566;7.786;2023-05-07T09:49:47;2.00;;;1.80;;
74108;SDS011;62466;47.566;7.786;2023-05-07T09:52:22;1.83;;;1.55;;
74108;SDS011;62466;47.566;7.786;2023-05-07T09:54:52;3.40;;;1.88;;
74108;SDS011;62466;47.566;7.786;2023-05-07T09:57:21;2.00;;;1.73;;
74108;SDS011;62466;47.566;7.786;2023-05-07T09:59:52;6.78;;;3.00;;
74108;SDS011;62466;47.566;7.786;2023-05-07T10:02:19;3.05;;;2.10;;
74108;SDS011;62466;47.566;7.786;2023-05-07T10:04:49;2.13;;;1.88;;
74108;SDS011;62466;47.566;7.786;2023-05-07T10:07:21;3.60;;;1.80;;
74108;SDS011;62466;47.566;7.786;2023-05-07T10:09:50;2.95;;;1.80;;
74108;SDS011;62466;47.566;7.786;2023-05-07T10:12:32;2.92;;;1.90;;
74108;SDS011;62466;47.566;7.786;2023-05-07T10:15:10;4.72;;;2.00;;
74108;SDS011;62466;47.566;7.786;2023-05-07T10:17:41;4.35;;;2.03;;
74108;SDS011;62466;47.566;7.786;2023-05-07T10:20:11;3.10;;;1.90;;
74108;SDS011;62466;47.566;7.786;2023-05-07T10:22:43;3.95;;;2.38;;
74108;SDS011;62466;47.566;7.786;2023-05-07T10:25:14;2.10;;;1.90;;
74108;SDS011;62466;47.566;7.786;2023-05-07T10:27:44;2.17;;;1.80;;
74108;SDS011;62466;47.566;7.786;2023-05-07T10:30:15;3.28;;;2.25;;
74108;SDS011;62466;47.566;7.786;2023-05-07T10:32:55;2.90;;;1.98;;
74108;SDS011;62466;47.566;7.786;2023-05-07T10:35:30;3.95;;;2.30;;
74108;SDS011;62466;47.566;7.786;2023-05-07T10:38:01;3.15;;;2.95;;
74108;SDS011;62466;47.566;7.786;2023-05-07T10:40:33;4.45;;;2.60;;
74108;SDS011;62466;47.566;7.786;2023-05-07T10:43:00;2.60;;;2.40;;
74108;SDS011;62466;47.566;7.786;2023-05-07T10:45:34;3.17;;;2.58;;
74108;SDS011;62466;47.566;7.786;2023-05-07T10:48:13;2.85;;;2.40;;
74108;SDS011;62466;47.566;7.786;2023-05-07T10:50:51;3.35;;;2.53;;
74108;SDS011;62466;47.566;7.786;2023-05-07T10:53:44;3.63;;;2.67;;
74108;SDS011;62466;47.566;7.786;2023-05-07T11:01:56;3.08;;;2.65;;
74108;SDS011;62466;47.566;7.786;2023-05-07T11:07:29;4.45;;;2.05;;
74108;SDS011;62466;47.566;7.786;2023-05-07T11:10:03;2.30;;;1.92;;
74108;SDS011;62466;47.566;7.786;2023-05-07T11:12:49;1.95;;;1.85;;
74108;SDS011;62466;47.566;7.786;2023-05-07T11:15:42;2.70;;;1.80;;
74108;SDS011;62466;47.566;7.786;2023-05-07T11:18:25;2.05;;;1.85;;
74108;SDS011;62466;47.566;7.786;2023-05-07T11:21:14;2.65;;;1.98;;
74108;SDS011;62466;47.566;7.786;2023-05-07T11:24:07;1.70;;;1.60;;
74108;SDS011;62466;47.566;7.786;2023-05-07T11:27:02;2.78;;;1.65;;
74108;SDS011;62466;47.566;7.786;2023-05-07T11:29:29;4.10;;;1.65;;
74108;SDS011;62466;47.566;7.786;2023-05-07T11:32:02;2.40;;;1.85;;
74108;SDS011;62466;47.566;7.786;2023-05-07T11:34:34;4.35;;;1.90;;
74108;SDS011;62466;47.566;7.786;2023-05-07T11:37:00;1.88;;;1.77;;
74108;SDS011;62466;47.566;7.786;2023-05-07T11:42:07;1.60;;;1.50;;
74108;SDS011;62466;47.566;7.786;2023-05-07T11:44:50;1.60;;;1.42;;
74108;SDS011;62466;47.566;7.786;2023-05-07T11:47:19;1.80;;;1.70;;
74108;SDS011;62466;47.566;7.786;2023-05-07T11:49:49;4.28;;;1.83;;
74108;SDS011;62466;47.566;7.786;2023-05-07T11:52:16;4.07;;;1.92;;
74108;SDS011;62466;47.566;7.786;2023-05-07T11:54:53;2.92;;;1.85;;
74108;SDS011;62466;47.566;7.786;2023-05-07T11:57:20;2.03;;;1.92;;
74108;SDS011;62466;47.566;7.786;2023-05-07T11:59:46;4.05;;;1.90;;
74108;SDS011;62466;47.566;7.786;2023-05-07T12:02:14;2.05;;;1.85;;
74108;SDS011;62466;47.566;7.786;2023-05-07T12:04:44;2.83;;;1.80;;
74108;SDS011;62466;47.566;7.786;2023-05-07T12:07:13;2.42;;;2.08;;
74108;SDS011;62466;47.566;7.786;2023-05-07T12:09:39;3.40;;;2.10;;
74108;SDS011;62466;47.566;7.786;2023-05-07T12:12:06;2.80;;;2.08;;
74108;SDS011;62466;47.566;7.786;2023-05-07T12:14:32;2.78;;;2.28;;
74108;SDS011;62466;47.566;7.786;2023-05-07T12:16:58;4.30;;;2.33;;
74108;SDS011;62466;47.566;7.786;2023-05-07T12:19:28;6.25;;;2.88;;
74108;SDS011;62466;47.566;7.786;2023-05-07T12:21:54;4.30;;;3.03;;
74108;SDS011;62466;47.566;7.786;2023-05-07T12:24:21;6.15;;;2.95;;
74108;SDS011;62466;47.566;7.786;2023-05-07T12:26:47;5.65;;;3.40;;
74108;SDS011;62466;47.566;7.786;2023-05-07T12:29:12;5.78;;;3.50;;
74108;SDS011;62466;47.566;7.786;2023-05-07T12:31:40;6.13;;;3.65;;
74108;SDS011;62466;47.566;7.786;2023-05-07T12:34:10;3.67;;;3.17;;
74108;SDS011;62466;47.566;7.786;2023-05-07T12:36:36;5.43;;;3.42;;
74108;SDS011;62466;47.566;7.786;2023-05-07T12:39:04;2.97;;;2.67;;
74108;SDS011;62466;47.566;7.786;2023-05-07T12:41:31;4.65;;;3.47;;
74108;SDS011;62466;47.566;7.786;2023-05-07T12:44:03;5.85;;;3.53;;
74108;SDS011;62466;47.566;7.786;2023-05-07T12:46:38;7.45;;;3.35;;
74108;SDS011;62466;47.566;7.786;2023-05-07T12:49:05;4.95;;;3.40;;
74108;SDS011;62466;47.566;7.786;2023-05-07T12:54:06;5.25;;;3.70;;
74108;SDS011;62466;47.566;7.786;2023-05-07T12:56:35;8.25;;;4.95;;
74108;SDS011;62466;47.566;7.786;2023-05-07T12:59:02;7.45;;;4.18;;
74108;SDS011;62466;47.566;7.786;2023-05-07T13:01:29;3.30;;;3.00;;
74108;SDS011;62466;47.566;7.786;2023-05-07T13:04:08;3.45;;;2.75;;
74108;SDS011;62466;47.566;7.786;2023-05-07T13:06:35;4.03;;;2.70;;
74108;SDS011;62466;47.566;7.786;2023-05-07T13:09:01;5.28;;;2.60;;
74108;SDS011;62466;47.566;7.786;2023-05-07T13:11:27;3.08;;;2.25;;
74108;SDS011;62466;47.566;7.786;2023-05-07T13:13:52;3.70;;;2.40;;
74108;SDS011;62466;47.566;7.786;2023-05-07T13:16:19;3.38;;;2.17;;
74108;SDS011;62466;47.566;7.786;2023-05-07T13:18:44;3.00;;;2.53;;
74108;SDS011;62466;47.566;7.786;2023-05-07T13:21:11;3.35;;;2.20;;
74108;SDS011;62466;47.566;7.786;2023-05-07T13:23:38;6.18;;;2.15;;
74108;SDS011;62466;47.566;7.786;2023-05-07T13:26:04;2.50;;;2.30;;
74108;SDS011;62466;47.566;7.786;2023-05-07T13:28:29;2.78;;;1.83;;
74108;SDS011;62466;47.566;7.786;2023-05-07T13:30:55;2.63;;;2.40;;
74108;SDS011;62466;47.566;7.786;2023-05-07T13:33:21;2.25;;;2.03;;
74108;SDS011;62466;47.566;7.786;2023-05-07T13:35:47;3.22;;;2.03;;
74108;SDS011;62466;47.566;7.786;2023-05-07T13:38:13;3.38;;;2.10;;
74108;SDS011;62466;47.566;7.786;2023-05-07T13:40:40;2.97;;;2.10;;
74108;SDS011;62466;47.566;7.786;2023-05-07T13:43:06;2.70;;;2.50;;
74108;SDS011;62466;47.566;7.786;2023-05-07T13:45:32;4.30;;;2.40;;
74108;SDS011;62466;47.566;7.786;2023-05-07T13:48:01;2.10;;;1.90;;
74108;SDS011;62466;47.566;7.786;2023-05-07T13:50:27;2.47;;;1.80;;
74108;SDS011;62466;47.566;7.786;2023-05-07T13:52:54;2.22;;;1.52;;
74108;SDS011;62466;47.566;7.786;2023-05-07T13:55:24;2.85;;;1.67;;
74108;SDS011;62466;47.566;7.786;2023-05-07T13:58:00;3.30;;;1.73;;
74108;SDS011;62466;47.566;7.786;2023-05-07T14:00:26;2.67;;;1.73;;
74108;SDS011;62466;47.566;7.786;2023-05-07T14:02:56;3.60;;;1.20;;
74108;SDS011;62466;47.566;7.786;2023-05-07T14:05:22;1.55;;;1.17;;
74108;SDS011;62466;47.566;7.786;2023-05-07T14:07:51;2.28;;;1.02;;
74108;SDS011;62466;47.566;7.786;2023-05-07T14:10:17;1.20;;;1.10;;
74108;SDS011;62466;47.566;7.786;2023-05-07T14:12:43;1.50;;;1.33;;
74108;SDS011;62466;47.566;7.786;2023-05-07T14:15:12;2.53;;;1.50;;
74108;SDS011;62466;47.566;7.786;2023-05-07T14:17:38;2.53;;;1.40;;
74108;SDS011;62466;47.566;7.786;2023-05-07T14:20:06;1.00;;;1.00;;
74108;SDS011;62466;47.566;7.786;2023-05-07T14:22:32;2.28;;;1.08;;
74108;SDS011;62466;47.566;7.786;2023-05-07T14:24:58;1.67;;;1.33;;
74108;SDS011;62466;47.566;7.786;2023-05-07T14:27:24;1.35;;;0.90;;
74108;SDS011;62466;47.566;7.786;2023-05-07T14:29:50;1.20;;;1.10;;
74108;SDS011;62466;47.566;7.786;2023-05-07T14:32:42;1.88;;;1.45;;
74108;SDS011;62466;47.566;7.786;2023-05-07T14:35:09;2.03;;;1.50;;
74108;SDS011;62466;47.566;7.786;2023-05-07T14:37:38;1.88;;;1.30;;
74108;SDS011;62466;47.566;7.786;2023-05-07T14:40:04;2.05;;;1.48;;
74108;SDS011;62466;47.566;7.786;2023-05-07T14:42:30;2.20;;;1.52;;
74108;SDS011;62466;47.566;7.786;2023-05-07T14:44:56;2.53;;;1.60;;
74108;SDS011;62466;47.566;7.786;2023-05-07T14:47:21;2.28;;;1.75;;
74108;SDS011;62466;47.566;7.786;2023-05-07T14:49:47;1.98;;;1.67;;
74108;SDS011;62466;47.566;7.786;2023-05-07T14:52:13;1.70;;;1.60;;
74108;SDS011;62466;47.566;7.786;2023-05-07T14:54:38;2.60;;;1.50;;
74108;SDS011;62466;47.566;7.786;2023-05-07T14:57:05;2.05;;;1.50;;
74108;SDS011;62466;47.566;7.786;2023-05-07T14:59:30;2.03;;;1.70;;
74108;SDS011;62466;47.566;7.786;2023-05-07T15:01:57;2.20;;;2.00;;
74108;SDS011;62466;47.566;7.786;2023-05-07T15:04:25;2.97;;;1.80;;
74108;SDS011;62466;47.566;7.786;2023-05-07T15:06:53;2.50;;;1.90;;
74108;SDS011;62466;47.566;7.786;2023-05-07T15:09:21;2.40;;;1.58;;
74108;SDS011;62466;47.566;7.786;2023-05-07T15:11:50;2.88;;;1.30;;
74108;SDS011;62466;47.566;7.786;2023-05-07T15:14:27;2.03;;;1.83;;